sensor_id;sensor_type;location;lat;lon;timestamp;temperature;humidity
24408;DHT22;12542;50.924;4.516;2024-01-30T00:01:50;10.60;99.90
24408;DHT22;12542;50.924;4.516;2024-01-30T00:04:16;10.60;99.90
24408;DHT22;12542;50.924;4.516;2024-01-30T00:06:43;10.70;99.90
24408;DHT22;12542;50.924;4.516;2024-01-30T00:09:09;10.80;99.90
24408;DHT22;12542;50.924;4.516;2024-01-30T00:11:36;10.80;99.90
24408;DHT22;12542;50.924;4.516;2024-01-30T00:14:02;10.80;99.90
24408;DHT22;12542;50.924;4.516;2024-01-30T00:16:30;10.90;99.90
24408;DHT22;12542;50.924;4.516;2024-01-30T00:18:57;11.00;99.90
24408;DHT22;12542;50.924;4.516;2024-01-30T00:21:23;11.00;99.90
24408;DHT22;12542;50.924;4.516;2024-01-30T00:23:49;11.10;99.90
24408;DHT22;12542;50.924;4.516;2024-01-30T00:26:15;11.20;99.90
24408;DHT22;12542;50.924;4.516;2024-01-30T00:28:42;11.20;99.90
24408;DHT22;12542;50.924;4.516;2024-01-30T00:31:08;11.20;99.90
24408;DHT22;12542;50.924;4.516;2024-01-30T00:33:41;11.30;99.90
24408;DHT22;12542;50.924;4.516;2024-01-30T00:36:08;11.30;99.90
24408;DHT22;12542;50.924;4.516;2024-01-30T00:38:34;11.30;99.90
24408;DHT22;12542;50.924;4.516;2024-01-30T00:41:00;11.20;99.90
24408;DHT22;12542;50.924;4.516;2024-01-30T00:43:27;11.20;99.90
24408;DHT22;12542;50.924;4.516;2024-01-30T00:45:53;11.30;99.90
24408;DHT22;12542;50.924;4.516;2024-01-30T00:48:19;11.30;99.90
24408;DHT22;12542;50.924;4.516;2024-01-30T00:50:45;11.40;99.90
24408;DHT22;12542;50.924;4.516;2024-01-30T00:53:11;11.40;99.90
24408;DHT22;12542;50.924;4.516;2024-01-30T00:55:37;11.40;99.90
24408;DHT22;12542;50.924;4.516;2024-01-30T00:58:03;11.50;99.90
24408;DHT22;12542;50.924;4.516;2024-01-30T01:00:29;11.50;99.90
24408;DHT22;12542;50.924;4.516;2024-01-30T01:03:00;11.60;99.90
24408;DHT22;12542;50.924;4.516;2024-01-30T01:05:26;11.50;99.90
24408;DHT22;12542;50.924;4.516;2024-01-30T01:07:51;11.60;99.90
24408;DHT22;12542;50.924;4.516;2024-01-30T01:10:17;11.70;99.90
24408;DHT22;12542;50.924;4.516;2024-01-30T01:12:44;11.60;99.90
24408;DHT22;12542;50.924;4.516;2024-01-30T01:15:10;11.60;99.90
24408;DHT22;12542;50.924;4.516;2024-01-30T01:17:37;11.60;99.90
24408;DHT22;12542;50.924;4.516;2024-01-30T01:20:04;11.40;99.90
24408;DHT22;12542;50.924;4.516;2024-01-30T01:22:31;11.30;99.90
24408;DHT22;12542;50.924;4.516;2024-01-30T01:24:56;11.30;99.90
24408;DHT22;12542;50.924;4.516;2024-01-30T01:27:22;11.20;99.90
24408;DHT22;12542;50.924;4.516;2024-01-30T01:29:48;11.10;99.90
24408;DHT22;12542;50.924;4.516;2024-01-30T01:32:13;11.10;99.90
24408;DHT22;12542;50.924;4.516;2024-01-30T01:34:39;11.20;99.90
24408;DHT22;12542;50.924;4.516;2024-01-30T01:37:05;11.20;99.90
24408;DHT22;12542;50.924;4.516;2024-01-30T01:39:31;11.20;99.90
24408;DHT22;12542;50.924;4.516;2024-01-30T01:41:56;11.20;99.90
24408;DHT22;12542;50.924;4.516;2024-01-30T01:44:22;11.20;99.90
24408;DHT22;12542;50.924;4.516;2024-01-30T01:46:48;11.20;99.90
24408;DHT22;12542;50.924;4.516;2024-01-30T01:49:17;11.20;99.90
24408;DHT22;12542;50.924;4.516;2024-01-30T01:51:45;11.30;99.90
24408;DHT22;12542;50.924;4.516;2024-01-30T01:54:13;11.40;99.90
24408;DHT22;12542;50.924;4.516;2024-01-30T01:56:42;11.50;99.90
24408;DHT22;12542;50.924;4.516;2024-01-30T01:59:09;11.50;99.90
24408;DHT22;12542;50.924;4.516;2024-01-30T02:01:38;11.60;99.90
24408;DHT22;12542;50.924;4.516;2024-01-30T02:04:04;11.60;99.90
24408;DHT22;12542;50.924;4.516;2024-01-30T02:06:31;11.60;99.90
24408;DHT22;12542;50.924;4.516;2024-01-30T02:08:57;11.70;99.90
24408;DHT22;12542;50.924;4.516;2024-01-30T02:11:23;11.70;99.90
24408;DHT22;12542;50.924;4.516;2024-01-30T02:13:49;11.80;99.90
24408;DHT22;12542;50.924;4.516;2024-01-30T02:16:16;11.80;99.90
24408;DHT22;12542;50.924;4.516;2024-01-30T02:18:43;11.90;99.90
24408;DHT22;12542;50.924;4.516;2024-01-30T02:21:12;11.80;99.90
24408;DHT22;12542;50.924;4.516;2024-01-30T02:23:39;11.80;99.90
24408;DHT22;12542;50.924;4.516;2024-01-30T02:26:06;11.80;99.90
24408;DHT22;12542;50.924;4.516;2024-01-30T02:28:32;11.80;99.90
24408;DHT22;12542;50.924;4.516;2024-01-30T02:30:57;11.80;99.90
24408;DHT22;12542;50.924;4.516;2024-01-30T02:33:23;11.80;99.90
24408;DHT22;12542;50.924;4.516;2024-01-30T02:35:49;11.80;99.90
24408;DHT22;12542;50.924;4.516;2024-01-30T02:38:16;11.70;99.90
24408;DHT22;12542;50.924;4.516;2024-01-30T02:40:42;11.60;99.90
24408;DHT22;12542;50.924;4.516;2024-01-30T02:43:08;11.50;99.90
24408;DHT22;12542;50.924;4.516;2024-01-30T02:45:35;11.40;99.90
24408;DHT22;12542;50.924;4.516;2024-01-30T02:48:04;11.40;99.90
24408;DHT22;12542;50.924;4.516;2024-01-30T02:50:29;11.50;99.90
24408;DHT22;12542;50.924;4.516;2024-01-30T02:52:55;11.50;99.90
24408;DHT22;12542;50.924;4.516;2024-01-30T02:55:21;11.50;99.90
24408;DHT22;12542;50.924;4.516;2024-01-30T02:57:46;11.60;99.90
24408;DHT22;12542;50.924;4.516;2024-01-30T03:00:12;11.60;99.90
24408;DHT22;12542;50.924;4.516;2024-01-30T03:02:38;11.70;99.90
24408;DHT22;12542;50.924;4.516;2024-01-30T03:05:05;11.70;99.90
24408;DHT22;12542;50.924;4.516;2024-01-30T03:07:31;11.80;99.90
24408;DHT22;12542;50.924;4.516;2024-01-30T03:09:57;11.60;99.90
24408;DHT22;12542;50.924;4.516;2024-01-30T03:12:23;11.70;99.90
24408;DHT22;12542;50.924;4.516;2024-01-30T03:14:48;11.70;99.90
24408;DHT22;12542;50.924;4.516;2024-01-30T03:17:15;11.60;99.90
24408;DHT22;12542;50.924;4.516;2024-01-30T03:19:40;11.60;99.90
24408;DHT22;12542;50.924;4.516;2024-01-30T03:22:06;11.50;99.90
24408;DHT22;12542;50.924;4.516;2024-01-30T03:24:32;11.50;99.90
24408;DHT22;12542;50.924;4.516;2024-01-30T03:26:57;11.40;99.90
24408;DHT22;12542;50.924;4.516;2024-01-30T03:29:23;11.50;99.90
24408;DHT22;12542;50.924;4.516;2024-01-30T03:31:49;11.40;99.90
24408;DHT22;12542;50.924;4.516;2024-01-30T03:34:14;11.30;99.90
24408;DHT22;12542;50.924;4.516;2024-01-30T03:36:40;11.40;99.90
24408;DHT22;12542;50.924;4.516;2024-01-30T03:39:06;11.40;99.90
24408;DHT22;12542;50.924;4.516;2024-01-30T03:41:31;11.40;99.90
24408;DHT22;12542;50.924;4.516;2024-01-30T03:43:57;11.40;99.90
24408;DHT22;12542;50.924;4.516;2024-01-30T03:46:23;11.40;99.90
24408;DHT22;12542;50.924;4.516;2024-01-30T03:48:49;11.50;99.90
24408;DHT22;12542;50.924;4.516;2024-01-30T03:51:15;11.30;99.90
24408;DHT22;12542;50.924;4.516;2024-01-30T03:53:44;11.20;99.90
24408;DHT22;12542;50.924;4.516;2024-01-30T03:56:11;11.50;99.90
24408;DHT22;12542;50.924;4.516;2024-01-30T03:58:39;11.50;99.90
24408;DHT22;12542;50.924;4.516;2024-01-30T04:01:07;11.20;99.90
24408;DHT22;12542;50.924;4.516;2024-01-30T04:03:33;11.20;99.90
24408;DHT22;12542;50.924;4.516;2024-01-30T04:05:58;11.10;99.90
24408;DHT22;12542;50.924;4.516;2024-01-30T04:08:24;11.00;99.90
24408;DHT22;12542;50.924;4.516;2024-01-30T04:10:50;11.00;99.90
24408;DHT22;12542;50.924;4.516;2024-01-30T04:13:15;11.20;99.90
24408;DHT22;12542;50.924;4.516;2024-01-30T04:15:41;11.20;99.90
24408;DHT22;12542;50.924;4.516;2024-01-30T04:18:07;11.20;99.90
24408;DHT22;12542;50.924;4.516;2024-01-30T04:20:32;11.40;99.90
24408;DHT22;12542;50.924;4.516;2024-01-30T04:22:58;11.40;99.90
24408;DHT22;12542;50.924;4.516;2024-01-30T04:25:24;11.30;99.90
24408;DHT22;12542;50.924;4.516;2024-01-30T04:27:49;11.10;99.90
24408;DHT22;12542;50.924;4.516;2024-01-30T04:30:15;11.20;99.90
24408;DHT22;12542;50.924;4.516;2024-01-30T04:32:41;11.10;99.90
24408;DHT22;12542;50.924;4.516;2024-01-30T04:35:07;11.10;99.90
24408;DHT22;12542;50.924;4.516;2024-01-30T04:37:33;11.00;99.90
24408;DHT22;12542;50.924;4.516;2024-01-30T04:39:58;11.10;99.90
24408;DHT22;12542;50.924;4.516;2024-01-30T04:42:24;11.00;99.90
24408;DHT22;12542;50.924;4.516;2024-01-30T04:44:50;10.90;99.90
24408;DHT22;12542;50.924;4.516;2024-01-30T04:47:16;10.80;99.90
24408;DHT22;12542;50.924;4.516;2024-01-30T04:49:42;10.70;99.90
24408;DHT22;12542;50.924;4.516;2024-01-30T04:52:08;10.90;99.90
24408;DHT22;12542;50.924;4.516;2024-01-30T04:54:35;10.90;99.90
24408;DHT22;12542;50.924;4.516;2024-01-30T04:57:01;10.90;99.90
24408;DHT22;12542;50.924;4.516;2024-01-30T04:59:27;10.80;99.90
24408;DHT22;12542;50.924;4.516;2024-01-30T05:01:52;10.80;99.90
24408;DHT22;12542;50.924;4.516;2024-01-30T05:04:18;10.80;99.90
24408;DHT22;12542;50.924;4.516;2024-01-30T05:06:44;10.80;99.90
24408;DHT22;12542;50.924;4.516;2024-01-30T05:09:09;10.80;99.90
24408;DHT22;12542;50.924;4.516;2024-01-30T05:11:39;10.70;99.90
24408;DHT22;12542;50.924;4.516;2024-01-30T05:14:06;10.60;99.90
24408;DHT22;12542;50.924;4.516;2024-01-30T05:16:32;10.50;99.90
24408;DHT22;12542;50.924;4.516;2024-01-30T05:18:58;10.50;99.90
24408;DHT22;12542;50.924;4.516;2024-01-30T05:21:24;10.50;99.90
24408;DHT22;12542;50.924;4.516;2024-01-30T05:23:50;10.40;99.90
24408;DHT22;12542;50.924;4.516;2024-01-30T05:26:16;10.50;99.90
24408;DHT22;12542;50.924;4.516;2024-01-30T05:28:42;10.40;99.90
24408;DHT22;12542;50.924;4.516;2024-01-30T05:31:10;10.40;99.90
24408;DHT22;12542;50.924;4.516;2024-01-30T05:33:36;10.40;99.90
24408;DHT22;12542;50.924;4.516;2024-01-30T05:36:02;10.50;99.90
24408;DHT22;12542;50.924;4.516;2024-01-30T05:38:31;10.50;99.90
24408;DHT22;12542;50.924;4.516;2024-01-30T05:40:59;10.60;99.90
24408;DHT22;12542;50.924;4.516;2024-01-30T05:43:24;10.60;99.90
24408;DHT22;12542;50.924;4.516;2024-01-30T05:45:51;10.60;99.90
24408;DHT22;12542;50.924;4.516;2024-01-30T05:48:17;10.60;99.90
24408;DHT22;12542;50.924;4.516;2024-01-30T05:50:43;10.70;99.90
24408;DHT22;12542;50.924;4.516;2024-01-30T05:53:09;10.70;99.90
24408;DHT22;12542;50.924;4.516;2024-01-30T05:55:35;10.60;99.90
24408;DHT22;12542;50.924;4.516;2024-01-30T05:58:00;10.50;99.90
24408;DHT22;12542;50.924;4.516;2024-01-30T06:00:29;10.50;99.90
24408;DHT22;12542;50.924;4.516;2024-01-30T06:02:55;10.50;99.90
24408;DHT22;12542;50.924;4.516;2024-01-30T06:05:21;10.50;99.90
24408;DHT22;12542;50.924;4.516;2024-01-30T06:07:46;10.60;99.90
24408;DHT22;12542;50.924;4.516;2024-01-30T06:10:12;10.60;99.90
24408;DHT22;12542;50.924;4.516;2024-01-30T06:12:38;10.60;99.90
24408;DHT22;12542;50.924;4.516;2024-01-30T06:15:04;10.80;99.90
24408;DHT22;12542;50.924;4.516;2024-01-30T06:17:30;10.90;99.90
24408;DHT22;12542;50.924;4.516;2024-01-30T06:19:56;11.00;99.90
24408;DHT22;12542;50.924;4.516;2024-01-30T06:22:21;11.10;99.90
24408;DHT22;12542;50.924;4.516;2024-01-30T06:24:47;11.20;99.90
24408;DHT22;12542;50.924;4.516;2024-01-30T06:27:15;11.20;99.90
24408;DHT22;12542;50.924;4.516;2024-01-30T06:29:43;11.30;99.90
24408;DHT22;12542;50.924;4.516;2024-01-30T06:32:08;11.20;99.90
24408;DHT22;12542;50.924;4.516;2024-01-30T06:34:34;11.20;99.90
24408;DHT22;12542;50.924;4.516;2024-01-30T06:37:00;11.30;99.90
24408;DHT22;12542;50.924;4.516;2024-01-30T06:39:26;11.30;99.90
24408;DHT22;12542;50.924;4.516;2024-01-30T06:41:52;11.20;99.90
24408;DHT22;12542;50.924;4.516;2024-01-30T06:44:18;11.20;99.90
24408;DHT22;12542;50.924;4.516;2024-01-30T06:46:43;11.00;99.90
24408;DHT22;12542;50.924;4.516;2024-01-30T06:49:11;11.20;99.90
24408;DHT22;12542;50.924;4.516;2024-01-30T06:51:37;11.10;99.90
24408;DHT22;12542;50.924;4.516;2024-01-30T06:54:05;11.00;99.90
24408;DHT22;12542;50.924;4.516;2024-01-30T06:56:31;11.00;99.90
24408;DHT22;12542;50.924;4.516;2024-01-30T06:58:56;11.10;99.90
24408;DHT22;12542;50.924;4.516;2024-01-30T07:01:31;11.10;99.90
24408;DHT22;12542;50.924;4.516;2024-01-30T07:03:57;11.10;99.90
24408;DHT22;12542;50.924;4.516;2024-01-30T07:06:23;11.10;99.90
24408;DHT22;12542;50.924;4.516;2024-01-30T07:08:49;11.20;99.90
24408;DHT22;12542;50.924;4.516;2024-01-30T07:11:22;11.20;99.90
24408;DHT22;12542;50.924;4.516;2024-01-30T07:13:51;11.20;99.90
24408;DHT22;12542;50.924;4.516;2024-01-30T07:16:17;11.30;99.90
24408;DHT22;12542;50.924;4.516;2024-01-30T07:18:43;11.20;99.90
24408;DHT22;12542;50.924;4.516;2024-01-30T07:21:09;11.20;99.90
24408;DHT22;12542;50.924;4.516;2024-01-30T07:23:35;11.30;99.90
24408;DHT22;12542;50.924;4.516;2024-01-30T07:26:04;11.40;99.90
24408;DHT22;12542;50.924;4.516;2024-01-30T07:28:30;11.40;99.90
24408;DHT22;12542;50.924;4.516;2024-01-30T07:30:56;11.50;99.90
24408;DHT22;12542;50.924;4.516;2024-01-30T07:33:21;11.50;99.90
24408;DHT22;12542;50.924;4.516;2024-01-30T07:35:47;11.60;99.90
24408;DHT22;12542;50.924;4.516;2024-01-30T07:38:13;11.60;99.90
24408;DHT22;12542;50.924;4.516;2024-01-30T07:40:38;11.70;99.90
24408;DHT22;12542;50.924;4.516;2024-01-30T07:43:04;11.70;99.90
24408;DHT22;12542;50.924;4.516;2024-01-30T07:45:30;11.90;99.90
24408;DHT22;12542;50.924;4.516;2024-01-30T07:47:58;12.00;99.90
24408;DHT22;12542;50.924;4.516;2024-01-30T07:50:25;12.10;99.90
24408;DHT22;12542;50.924;4.516;2024-01-30T07:52:51;12.10;99.90
24408;DHT22;12542;50.924;4.516;2024-01-30T07:55:20;12.10;99.90
24408;DHT22;12542;50.924;4.516;2024-01-30T07:57:51;12.30;99.90
24408;DHT22;12542;50.924;4.516;2024-01-30T08:00:18;12.40;99.90
24408;DHT22;12542;50.924;4.516;2024-01-30T08:02:45;12.50;99.90
24408;DHT22;12542;50.924;4.516;2024-01-30T08:05:13;12.50;99.90
24408;DHT22;12542;50.924;4.516;2024-01-30T08:07:43;12.50;99.90
24408;DHT22;12542;50.924;4.516;2024-01-30T08:10:12;12.60;99.90
24408;DHT22;12542;50.924;4.516;2024-01-30T08:12:38;12.70;99.90
24408;DHT22;12542;50.924;4.516;2024-01-30T08:15:05;12.70;99.90
24408;DHT22;12542;50.924;4.516;2024-01-30T08:17:31;12.80;99.90
24408;DHT22;12542;50.924;4.516;2024-01-30T08:19:56;12.80;99.90
24408;DHT22;12542;50.924;4.516;2024-01-30T08:22:22;12.80;99.90
24408;DHT22;12542;50.924;4.516;2024-01-30T08:24:48;12.80;99.90
24408;DHT22;12542;50.924;4.516;2024-01-30T08:27:16;12.90;99.90
24408;DHT22;12542;50.924;4.516;2024-01-30T08:29:47;12.70;99.90
24408;DHT22;12542;50.924;4.516;2024-01-30T08:32:12;12.60;99.90
24408;DHT22;12542;50.924;4.516;2024-01-30T08:34:38;12.50;99.90
24408;DHT22;12542;50.924;4.516;2024-01-30T08:37:04;12.60;99.90
24408;DHT22;12542;50.924;4.516;2024-01-30T08:39:30;12.50;99.90
24408;DHT22;12542;50.924;4.516;2024-01-30T08:41:56;12.40;99.90
24408;DHT22;12542;50.924;4.516;2024-01-30T08:44:21;12.40;99.90
24408;DHT22;12542;50.924;4.516;2024-01-30T08:46:47;12.50;99.90
24408;DHT22;12542;50.924;4.516;2024-01-30T08:49:14;12.50;99.90
24408;DHT22;12542;50.924;4.516;2024-01-30T08:51:41;12.40;99.90
24408;DHT22;12542;50.924;4.516;2024-01-30T08:54:07;12.40;99.90
24408;DHT22;12542;50.924;4.516;2024-01-30T08:56:32;12.40;99.90
24408;DHT22;12542;50.924;4.516;2024-01-30T08:58:58;12.40;99.90
24408;DHT22;12542;50.924;4.516;2024-01-30T09:01:25;12.50;99.90
24408;DHT22;12542;50.924;4.516;2024-01-30T09:03:52;12.40;99.90
24408;DHT22;12542;50.924;4.516;2024-01-30T09:06:17;12.40;99.90
24408;DHT22;12542;50.924;4.516;2024-01-30T09:08:43;12.40;99.90
24408;DHT22;12542;50.924;4.516;2024-01-30T09:11:13;12.30;99.90
24408;DHT22;12542;50.924;4.516;2024-01-30T09:13:39;12.20;99.90
24408;DHT22;12542;50.924;4.516;2024-01-30T09:16:05;12.20;99.90
24408;DHT22;12542;50.924;4.516;2024-01-30T09:18:31;12.20;99.90
24408;DHT22;12542;50.924;4.516;2024-01-30T09:20:57;12.30;99.90
24408;DHT22;12542;50.924;4.516;2024-01-30T09:23:24;12.30;99.90
24408;DHT22;12542;50.924;4.516;2024-01-30T09:25:50;12.40;99.90
24408;DHT22;12542;50.924;4.516;2024-01-30T09:28:17;12.60;99.90
24408;DHT22;12542;50.924;4.516;2024-01-30T09:30:43;12.70;99.90
24408;DHT22;12542;50.924;4.516;2024-01-30T09:33:09;12.80;99.90
24408;DHT22;12542;50.924;4.516;2024-01-30T09:35:35;12.90;99.90
24408;DHT22;12542;50.924;4.516;2024-01-30T09:38:02;12.80;99.90
24408;DHT22;12542;50.924;4.516;2024-01-30T09:40:28;12.80;99.90
24408;DHT22;12542;50.924;4.516;2024-01-30T09:42:54;12.90;99.90
24408;DHT22;12542;50.924;4.516;2024-01-30T09:45:24;13.00;99.90
24408;DHT22;12542;50.924;4.516;2024-01-30T09:47:50;13.20;99.90
24408;DHT22;12542;50.924;4.516;2024-01-30T09:50:16;13.20;99.90
24408;DHT22;12542;50.924;4.516;2024-01-30T09:52:46;13.20;99.90
24408;DHT22;12542;50.924;4.516;2024-01-30T09:55:13;13.40;99.90
24408;DHT22;12542;50.924;4.516;2024-01-30T09:57:41;13.40;99.90
24408;DHT22;12542;50.924;4.516;2024-01-30T10:00:08;13.40;99.90
24408;DHT22;12542;50.924;4.516;2024-01-30T10:02:35;13.30;99.90
24408;DHT22;12542;50.924;4.516;2024-01-30T10:05:01;13.40;99.90
24408;DHT22;12542;50.924;4.516;2024-01-30T10:07:27;13.30;99.90
24408;DHT22;12542;50.924;4.516;2024-01-30T10:09:54;13.30;99.90
24408;DHT22;12542;50.924;4.516;2024-01-30T10:12:22;13.20;99.90
24408;DHT22;12542;50.924;4.516;2024-01-30T10:14:48;13.10;99.90
24408;DHT22;12542;50.924;4.516;2024-01-30T10:17:13;13.00;99.90
24408;DHT22;12542;50.924;4.516;2024-01-30T10:19:42;13.20;99.90
24408;DHT22;12542;50.924;4.516;2024-01-30T10:22:09;13.20;99.90
24408;DHT22;12542;50.924;4.516;2024-01-30T10:24:37;13.40;99.90
24408;DHT22;12542;50.924;4.516;2024-01-30T10:27:05;13.50;99.90
24408;DHT22;12542;50.924;4.516;2024-01-30T10:29:31;13.60;99.90
24408;DHT22;12542;50.924;4.516;2024-01-30T10:32:04;13.60;99.90
24408;DHT22;12542;50.924;4.516;2024-01-30T10:34:31;13.60;99.90
24408;DHT22;12542;50.924;4.516;2024-01-30T10:39:29;13.50;99.90
24408;DHT22;12542;50.924;4.516;2024-01-30T10:42:01;13.40;99.90
24408;DHT22;12542;50.924;4.516;2024-01-30T10:44:30;13.30;99.90
24408;DHT22;12542;50.924;4.516;2024-01-30T10:47:05;13.30;99.90
24408;DHT22;12542;50.924;4.516;2024-01-30T10:49:33;13.10;99.90
24408;DHT22;12542;50.924;4.516;2024-01-30T10:51:59;13.00;99.90
24408;DHT22;12542;50.924;4.516;2024-01-30T10:54:26;13.10;99.90
24408;DHT22;12542;50.924;4.516;2024-01-30T10:56:53;13.10;99.90
24408;DHT22;12542;50.924;4.516;2024-01-30T10:59:19;13.10;99.90
24408;DHT22;12542;50.924;4.516;2024-01-30T11:01:45;13.20;99.90
24408;DHT22;12542;50.924;4.516;2024-01-30T11:04:11;13.30;99.90
24408;DHT22;12542;50.924;4.516;2024-01-30T11:06:41;13.40;99.90
24408;DHT22;12542;50.924;4.516;2024-01-30T11:09:11;13.40;99.90
24408;DHT22;12542;50.924;4.516;2024-01-30T11:11:57;13.30;99.90
24408;DHT22;12542;50.924;4.516;2024-01-30T11:14:31;13.40;99.90
24408;DHT22;12542;50.924;4.516;2024-01-30T11:16:58;13.40;99.90
24408;DHT22;12542;50.924;4.516;2024-01-30T11:19:30;13.30;99.90
24408;DHT22;12542;50.924;4.516;2024-01-30T11:21:56;13.10;99.90
24408;DHT22;12542;50.924;4.516;2024-01-30T11:24:23;12.80;99.90
24408;DHT22;12542;50.924;4.516;2024-01-30T11:26:49;12.80;99.90
24408;DHT22;12542;50.924;4.516;2024-01-30T11:29:19;12.70;99.90
24408;DHT22;12542;50.924;4.516;2024-01-30T11:31:58;12.70;99.90
24408;DHT22;12542;50.924;4.516;2024-01-30T11:34:24;12.80;99.90
24408;DHT22;12542;50.924;4.516;2024-01-30T11:36:58;12.70;99.90
24408;DHT22;12542;50.924;4.516;2024-01-30T11:39:25;12.50;99.90
24408;DHT22;12542;50.924;4.516;2024-01-30T11:41:52;12.50;99.90
24408;DHT22;12542;50.924;4.516;2024-01-30T11:44:22;12.70;99.90
24408;DHT22;12542;50.924;4.516;2024-01-30T11:46:49;12.80;99.90
24408;DHT22;12542;50.924;4.516;2024-01-30T11:49:16;12.90;99.90
24408;DHT22;12542;50.924;4.516;2024-01-30T11:51:48;13.00;99.90
24408;DHT22;12542;50.924;4.516;2024-01-30T11:54:18;13.20;99.90
24408;DHT22;12542;50.924;4.516;2024-01-30T11:56:45;13.10;99.90
24408;DHT22;12542;50.924;4.516;2024-01-30T11:59:11;13.10;99.90
24408;DHT22;12542;50.924;4.516;2024-01-30T12:01:37;13.10;99.90
24408;DHT22;12542;50.924;4.516;2024-01-30T12:04:03;13.20;99.90
24408;DHT22;12542;50.924;4.516;2024-01-30T12:06:28;13.30;99.90
24408;DHT22;12542;50.924;4.516;2024-01-30T12:09:02;13.30;99.90
24408;DHT22;12542;50.924;4.516;2024-01-30T12:11:30;13.50;99.90
24408;DHT22;12542;50.924;4.516;2024-01-30T12:13:56;13.50;99.90
24408;DHT22;12542;50.924;4.516;2024-01-30T12:16:22;13.30;99.90
24408;DHT22;12542;50.924;4.516;2024-01-30T12:18:48;13.30;99.90
24408;DHT22;12542;50.924;4.516;2024-01-30T12:21:17;13.30;99.90
24408;DHT22;12542;50.924;4.516;2024-01-30T12:23:44;13.40;99.90
24408;DHT22;12542;50.924;4.516;2024-01-30T12:26:10;13.40;99.90
24408;DHT22;12542;50.924;4.516;2024-01-30T12:28:36;13.30;99.90
24408;DHT22;12542;50.924;4.516;2024-01-30T12:31:05;13.40;99.90
24408;DHT22;12542;50.924;4.516;2024-01-30T12:33:31;13.20;99.90
24408;DHT22;12542;50.924;4.516;2024-01-30T12:35:57;12.90;99.90
24408;DHT22;12542;50.924;4.516;2024-01-30T12:38:24;12.80;99.90
24408;DHT22;12542;50.924;4.516;2024-01-30T12:40:55;13.00;99.90
24408;DHT22;12542;50.924;4.516;2024-01-30T12:43:22;13.10;99.90
24408;DHT22;12542;50.924;4.516;2024-01-30T12:45:50;13.20;99.90
24408;DHT22;12542;50.924;4.516;2024-01-30T12:48:15;13.40;99.90
24408;DHT22;12542;50.924;4.516;2024-01-30T12:50:44;13.40;99.90
24408;DHT22;12542;50.924;4.516;2024-01-30T12:53:09;13.60;99.90
24408;DHT22;12542;50.924;4.516;2024-01-30T12:55:35;13.60;99.90
24408;DHT22;12542;50.924;4.516;2024-01-30T12:58:01;13.80;99.90
24408;DHT22;12542;50.924;4.516;2024-01-30T13:00:29;14.00;99.90
24408;DHT22;12542;50.924;4.516;2024-01-30T13:02:55;14.10;99.90
24408;DHT22;12542;50.924;4.516;2024-01-30T13:05:21;14.20;99.90
24408;DHT22;12542;50.924;4.516;2024-01-30T13:07:47;14.20;99.90
24408;DHT22;12542;50.924;4.516;2024-01-30T13:10:15;14.10;99.90
24408;DHT22;12542;50.924;4.516;2024-01-30T13:12:41;13.90;99.90
24408;DHT22;12542;50.924;4.516;2024-01-30T13:15:06;13.60;99.90
24408;DHT22;12542;50.924;4.516;2024-01-30T13:17:33;13.40;99.90
24408;DHT22;12542;50.924;4.516;2024-01-30T13:19:58;13.30;99.90
24408;DHT22;12542;50.924;4.516;2024-01-30T13:22:24;13.10;99.90
24408;DHT22;12542;50.924;4.516;2024-01-30T13:24:50;13.00;99.90
24408;DHT22;12542;50.924;4.516;2024-01-30T13:27:16;13.00;99.90
24408;DHT22;12542;50.924;4.516;2024-01-30T13:29:41;12.80;99.90
24408;DHT22;12542;50.924;4.516;2024-01-30T13:32:07;12.80;99.90
24408;DHT22;12542;50.924;4.516;2024-01-30T13:34:33;12.80;99.90
24408;DHT22;12542;50.924;4.516;2024-01-30T13:36:59;12.90;99.90
24408;DHT22;12542;50.924;4.516;2024-01-30T13:39:25;12.90;99.90
24408;DHT22;12542;50.924;4.516;2024-01-30T13:41:50;13.00;99.90
24408;DHT22;12542;50.924;4.516;2024-01-30T13:44:16;12.90;99.90
24408;DHT22;12542;50.924;4.516;2024-01-30T13:46:43;12.70;99.90
24408;DHT22;12542;50.924;4.516;2024-01-30T13:49:08;12.70;99.90
24408;DHT22;12542;50.924;4.516;2024-01-30T13:51:34;12.90;99.90
24408;DHT22;12542;50.924;4.516;2024-01-30T13:54:00;12.90;99.90
24408;DHT22;12542;50.924;4.516;2024-01-30T13:56:26;12.80;99.90
24408;DHT22;12542;50.924;4.516;2024-01-30T13:58:52;12.90;99.90
24408;DHT22;12542;50.924;4.516;2024-01-30T14:01:20;13.00;99.90
24408;DHT22;12542;50.924;4.516;2024-01-30T14:03:46;13.10;99.90
24408;DHT22;12542;50.924;4.516;2024-01-30T14:06:12;13.00;99.90
24408;DHT22;12542;50.924;4.516;2024-01-30T14:08:37;12.90;99.90
24408;DHT22;12542;50.924;4.516;2024-01-30T14:11:03;12.80;99.90
24408;DHT22;12542;50.924;4.516;2024-01-30T14:13:29;12.80;99.90
24408;DHT22;12542;50.924;4.516;2024-01-30T14:15:58;12.70;99.90
24408;DHT22;12542;50.924;4.516;2024-01-30T14:18:24;12.50;99.90
24408;DHT22;12542;50.924;4.516;2024-01-30T14:20:51;12.30;99.90
24408;DHT22;12542;50.924;4.516;2024-01-30T14:23:17;12.20;99.90
24408;DHT22;12542;50.924;4.516;2024-01-30T14:25:43;12.00;99.90
24408;DHT22;12542;50.924;4.516;2024-01-30T14:28:10;11.90;99.90
24408;DHT22;12542;50.924;4.516;2024-01-30T14:30:35;11.90;99.90
24408;DHT22;12542;50.924;4.516;2024-01-30T14:33:01;12.00;99.90
24408;DHT22;12542;50.924;4.516;2024-01-30T14:35:27;12.10;99.90
24408;DHT22;12542;50.924;4.516;2024-01-30T14:37:53;12.00;99.90
24408;DHT22;12542;50.924;4.516;2024-01-30T14:40:19;11.90;99.90
24408;DHT22;12542;50.924;4.516;2024-01-30T14:42:45;12.00;99.90
24408;DHT22;12542;50.924;4.516;2024-01-30T14:45:11;12.00;99.90
24408;DHT22;12542;50.924;4.516;2024-01-30T14:47:37;12.00;99.90
24408;DHT22;12542;50.924;4.516;2024-01-30T14:50:04;11.80;99.90
24408;DHT22;12542;50.924;4.516;2024-01-30T14:52:31;11.70;99.90
24408;DHT22;12542;50.924;4.516;2024-01-30T14:54:57;11.70;99.90
24408;DHT22;12542;50.924;4.516;2024-01-30T14:57:24;11.60;99.90
24408;DHT22;12542;50.924;4.516;2024-01-30T14:59:49;11.70;99.90
24408;DHT22;12542;50.924;4.516;2024-01-30T15:02:15;11.60;99.90
24408;DHT22;12542;50.924;4.516;2024-01-30T15:04:41;11.60;99.90
24408;DHT22;12542;50.924;4.516;2024-01-30T15:07:07;11.70;99.90
24408;DHT22;12542;50.924;4.516;2024-01-30T15:09:33;11.60;99.90
24408;DHT22;12542;50.924;4.516;2024-01-30T15:11:58;11.50;99.90
24408;DHT22;12542;50.924;4.516;2024-01-30T15:14:24;11.40;99.90
24408;DHT22;12542;50.924;4.516;2024-01-30T15:16:50;11.40;99.90
24408;DHT22;12542;50.924;4.516;2024-01-30T15:19:16;11.40;99.90
24408;DHT22;12542;50.924;4.516;2024-01-30T15:21:41;11.30;99.90
24408;DHT22;12542;50.924;4.516;2024-01-30T15:24:07;11.30;99.90
24408;DHT22;12542;50.924;4.516;2024-01-30T15:26:33;11.30;99.90
24408;DHT22;12542;50.924;4.516;2024-01-30T15:28:59;11.30;99.90